createdAt,value
2023-02-11T00:00:33.972Z,-3.16
2023-02-11T00:01:36.749Z,-3.16
2023-02-11T00:02:39.102Z,-3.18
2023-02-11T00:03:41.490Z,-3.19
2023-02-11T00:04:43.863Z,-3.20
2023-02-11T00:05:46.194Z,-3.21
2023-02-11T00:06:48.574Z,-3.22
2023-02-11T00:07:50.957Z,-3.23
2023-02-11T00:08:53.521Z,-3.24
2023-02-11T00:09:56.102Z,-3.25
2023-02-11T00:10:58.597Z,-3.25
2023-02-11T00:12:00.976Z,-3.26
2023-02-11T00:13:03.366Z,-3.27
2023-02-11T00:14:08.070Z,-3.27
2023-02-11T00:15:10.741Z,-3.27
2023-02-11T00:16:18.843Z,-3.28
2023-02-11T00:17:21.394Z,-3.28
2023-02-11T00:18:23.735Z,-3.29
2023-02-11T00:19:26.082Z,-3.29
2023-02-11T00:20:28.432Z,-3.30
2023-02-11T00:21:30.851Z,-3.31
2023-02-11T00:22:33.196Z,-3.32
2023-02-11T00:23:36.394Z,-3.33
2023-02-11T00:24:38.778Z,-3.34
2023-02-11T00:25:42.615Z,-3.35
2023-02-11T00:26:45.015Z,-3.35
2023-02-11T00:27:47.404Z,-3.36
2023-02-11T00:28:51.735Z,-3.37
2023-02-11T00:29:54.128Z,-3.38
2023-02-11T00:30:57.683Z,-3.39
2023-02-11T00:32:05.260Z,-3.40
2023-02-11T00:33:07.712Z,-3.40
2023-02-11T00:34:10.099Z,-3.41
2023-02-11T00:35:12.615Z,-3.41
2023-02-11T00:36:17.605Z,-3.42
2023-02-11T00:37:19.950Z,-3.43
2023-02-11T00:38:22.314Z,-3.43
2023-02-11T00:39:25.183Z,-3.44
2023-02-11T00:40:27.812Z,-3.44
2023-02-11T00:41:30.654Z,-3.44
2023-02-11T00:42:33.139Z,-3.44
2023-02-11T00:43:35.896Z,-3.44
2023-02-11T00:44:40.574Z,-3.44
2023-02-11T00:45:42.964Z,-3.44
2023-02-11T00:46:45.444Z,-3.44
2023-02-11T00:47:48.039Z,-3.44
2023-02-11T00:48:51.985Z,-3.44
2023-02-11T00:49:54.366Z,-3.44
2023-02-11T00:50:56.849Z,-3.45
2023-02-11T00:51:59.260Z,-3.45
2023-02-11T00:53:01.633Z,-3.45
2023-02-11T00:54:04.609Z,-3.46
2023-02-11T00:55:07.772Z,-3.46
2023-02-11T00:56:10.241Z,-3.46
2023-02-11T00:57:12.677Z,-3.48
2023-02-11T00:58:15.045Z,-3.49
2023-02-11T00:59:58.348Z,-3.50
2023-02-11T01:01:00.827Z,-3.51
2023-02-11T01:02:03.448Z,-3.52
2023-02-11T01:03:06.344Z,-3.52
2023-02-11T01:04:08.701Z,-3.52
2023-02-11T01:05:11.110Z,-3.52
2023-02-11T01:06:14.010Z,-3.53
2023-02-11T01:07:16.390Z,-3.53
2023-02-11T01:08:18.896Z,-3.54
2023-02-11T01:09:21.285Z,-3.54
2023-02-11T01:10:23.632Z,-3.55
2023-02-11T01:11:26.276Z,-3.55
2023-02-11T01:12:28.613Z,-3.56
2023-02-11T01:13:33.290Z,-3.57
2023-02-11T01:14:35.661Z,-3.57
2023-02-11T01:15:38.141Z,-3.57
2023-02-11T01:16:40.492Z,-3.58
2023-02-11T01:17:42.992Z,-3.58
2023-02-11T01:18:46.082Z,-3.59
2023-02-11T01:19:48.694Z,-3.60
2023-02-11T01:20:52.332Z,-3.60
2023-02-11T01:21:54.652Z,-3.61
2023-02-11T01:22:59.355Z,-3.62
2023-02-11T01:24:01.753Z,-3.62
2023-02-11T01:25:04.340Z,-3.63
2023-02-11T01:26:06.802Z,-3.64
2023-02-11T01:27:09.117Z,-3.65
2023-02-11T01:28:18.982Z,-3.66
2023-02-11T01:29:21.563Z,-3.67
2023-02-11T01:30:23.942Z,-3.68
2023-02-11T01:31:26.377Z,-3.68
2023-02-11T01:32:28.740Z,-3.69
2023-02-11T01:33:33.407Z,-3.70
2023-02-11T01:34:35.814Z,-3.71
2023-02-11T01:35:39.595Z,-3.71
2023-02-11T01:36:42.120Z,-3.72
2023-02-11T01:37:44.641Z,-3.73
2023-02-11T01:38:46.976Z,-3.74
2023-02-11T01:39:49.325Z,-3.74
2023-02-11T01:40:57.483Z,-3.75
2023-02-11T01:42:00.126Z,-3.75
2023-02-11T01:43:02.456Z,-3.76
2023-02-11T01:44:27.805Z,-3.76
2023-02-11T01:46:05.511Z,-3.77
2023-02-11T01:47:08.112Z,-3.77
2023-02-11T01:48:14.489Z,-3.79
2023-02-11T01:49:27.975Z,-3.80
2023-02-11T01:50:31.266Z,-3.82
2023-02-11T01:51:42.130Z,-3.82
2023-02-11T01:52:47.245Z,-3.83
2023-02-11T01:54:09.263Z,-3.83
2023-02-11T01:55:32.233Z,-3.84
2023-02-11T01:56:56.832Z,-3.85
2023-02-11T01:58:04.827Z,-3.85
2023-02-11T01:59:15.769Z,-3.86
2023-02-11T02:01:32.065Z,-3.88
2023-02-11T02:02:55.797Z,-3.88
2023-02-11T02:04:01.888Z,-3.89
2023-02-11T02:05:30.841Z,-3.90
2023-02-11T02:06:38.282Z,-3.91
2023-02-11T02:07:52.906Z,-3.91
2023-02-11T02:09:20.549Z,-3.92
2023-02-11T02:10:26.279Z,-3.93
2023-02-11T02:11:28.643Z,-3.94
2023-02-11T02:12:31.041Z,-3.94
2023-02-11T02:13:34.973Z,-3.94
2023-02-11T02:14:40.936Z,-3.94
2023-02-11T02:15:54.631Z,-3.95
2023-02-11T02:16:56.979Z,-3.96
2023-02-11T02:18:09.279Z,-3.96
2023-02-11T02:19:39.265Z,-3.97
2023-02-11T02:21:05.593Z,-3.97
2023-02-11T02:22:38.569Z,-3.98
2023-02-11T02:23:44.113Z,-3.98
2023-02-11T02:25:04.616Z,-3.99
2023-02-11T02:26:29.968Z,-3.99
2023-02-11T02:27:38.374Z,-3.99
2023-02-11T02:28:43.435Z,-3.99
2023-02-11T02:30:07.325Z,-3.99
2023-02-11T02:31:21.148Z,-3.99
2023-02-11T02:32:48.302Z,-3.99
2023-02-11T02:33:54.484Z,-3.98
2023-02-11T02:35:34.125Z,-3.97
2023-02-11T02:36:49.797Z,-3.96
2023-02-11T02:38:00.281Z,-3.94
2023-02-11T02:39:26.824Z,-3.93
2023-02-11T02:40:37.200Z,-3.92
2023-02-11T02:41:40.277Z,-3.90
2023-02-11T02:42:44.157Z,-3.90
2023-02-11T02:43:49.961Z,-3.88
2023-02-11T02:44:53.526Z,-3.87
2023-02-11T02:45:56.066Z,-3.85
2023-02-11T02:46:58.504Z,-3.84
2023-02-11T02:48:00.900Z,-3.83
2023-02-11T02:49:04.170Z,-3.81
2023-02-11T02:50:09.255Z,-3.80
2023-02-11T02:51:42.873Z,-3.80
2023-02-11T02:52:50.673Z,-3.78
2023-02-11T02:54:21.102Z,-3.78
2023-02-11T02:55:41.274Z,-3.76
2023-02-11T02:57:20.259Z,-3.75
2023-02-11T02:58:22.534Z,-3.74
2023-02-11T02:59:36.682Z,-3.73
2023-02-11T03:00:51.306Z,-3.73
2023-02-11T03:02:17.516Z,-3.73
2023-02-11T03:03:31.797Z,-3.73
2023-02-11T03:04:54.952Z,-3.73
2023-02-11T03:05:59.933Z,-3.73
2023-02-11T03:07:19.937Z,-3.74
2023-02-11T03:08:35.626Z,-3.75
2023-02-11T03:09:49.767Z,-3.75
2023-02-11T03:10:54.762Z,-3.76
2023-02-11T03:11:57.341Z,-3.76
2023-02-11T03:13:01.368Z,-3.77
2023-02-11T03:14:06.374Z,-3.77
2023-02-11T03:15:09.349Z,-3.77
2023-02-11T03:16:15.796Z,-3.77
2023-02-11T03:17:19.166Z,-3.78
2023-02-11T03:18:25.744Z,-3.78
2023-02-11T03:19:37.649Z,-3.79
2023-02-11T03:20:42.581Z,-3.79
2023-02-11T03:21:47.869Z,-3.80
2023-02-11T03:23:15.320Z,-3.81
2023-02-11T03:24:40.216Z,-3.81
2023-02-11T03:25:47.239Z,-3.82
2023-02-11T03:26:55.404Z,-3.83
2023-02-11T03:28:10.329Z,-3.84
2023-02-11T03:29:40.465Z,-3.85
2023-02-11T03:31:07.603Z,-3.86
2023-02-11T03:32:16.401Z,-3.88
2023-02-11T03:33:29.675Z,-3.89
2023-02-11T03:34:54.843Z,-3.90
2023-02-11T03:36:02.315Z,-3.90
2023-02-11T03:37:16.833Z,-3.91
2023-02-11T03:38:28.236Z,-3.92
2023-02-11T03:39:40.678Z,-3.93
2023-02-11T03:40:45.767Z,-3.95
2023-02-11T03:41:50.234Z,-3.96
2023-02-11T03:43:03.340Z,-3.97
2023-02-11T03:44:07.270Z,-3.99
2023-02-11T03:45:12.621Z,-4.01
2023-02-11T03:46:18.644Z,-4.02
2023-02-11T03:47:26.718Z,-4.03
2023-02-11T03:48:35.555Z,-4.05
2023-02-11T03:49:40.078Z,-4.06
2023-02-11T03:50:44.912Z,-4.08
2023-02-11T03:51:51.110Z,-4.09
2023-02-11T03:52:55.226Z,-4.10
2023-02-11T03:54:00.615Z,-4.11
2023-02-11T03:55:09.307Z,-4.12
2023-02-11T03:56:17.399Z,-4.13
2023-02-11T03:57:19.794Z,-4.13
2023-02-11T03:58:22.394Z,-4.15
2023-02-11T03:59:25.707Z,-4.16
2023-02-11T04:00:36.741Z,-4.17
2023-02-11T04:01:39.082Z,-4.18
2023-02-11T04:02:42.116Z,-4.19
2023-02-11T04:03:44.510Z,-4.20
2023-02-11T04:04:47.382Z,-4.21
2023-02-11T04:05:50.119Z,-4.23
2023-02-11T04:06:52.763Z,-4.25
2023-02-11T04:07:55.140Z,-4.26
2023-02-11T04:08:57.633Z,-4.27
2023-02-11T04:10:00.024Z,-4.28
2023-02-11T04:11:02.364Z,-4.30
2023-02-11T04:12:04.917Z,-4.32
2023-02-11T04:13:07.262Z,-4.33
2023-02-11T04:14:09.641Z,-4.34
2023-02-11T04:15:12.080Z,-4.35
2023-02-11T04:16:14.533Z,-4.36
2023-02-11T04:17:16.999Z,-4.36
2023-02-11T04:18:19.394Z,-4.37
2023-02-11T04:19:21.765Z,-4.39
2023-02-11T04:20:24.127Z,-4.40
2023-02-11T04:21:26.542Z,-4.41
2023-02-11T04:22:28.891Z,-4.42
2023-02-11T04:23:31.223Z,-4.43
2023-02-11T04:24:34.066Z,-4.43
2023-02-11T04:25:36.711Z,-4.45
2023-02-11T04:26:39.177Z,-4.45
2023-02-11T04:27:41.524Z,-4.47
2023-02-11T04:28:43.841Z,-4.47
2023-02-11T04:29:46.176Z,-4.48
2023-02-11T04:30:50.689Z,-4.49
2023-02-11T04:31:53.168Z,-4.49
2023-02-11T04:32:55.545Z,-4.50
2023-02-11T04:33:57.888Z,-4.50
2023-02-11T04:35:00.231Z,-4.51
2023-02-11T04:36:02.673Z,-4.52
2023-02-11T04:37:05.489Z,-4.52
2023-02-11T04:38:07.909Z,-4.53
2023-02-11T04:39:10.313Z,-4.53
2023-02-11T04:40:13.206Z,-4.54
2023-02-11T04:41:15.657Z,-4.56
2023-02-11T04:42:18.038Z,-4.56
2023-02-11T04:43:20.444Z,-4.57
2023-02-11T04:44:22.799Z,-4.58
2023-02-11T04:45:25.137Z,-4.58
2023-02-11T04:46:27.568Z,-4.59
2023-02-11T04:47:29.951Z,-4.60
2023-02-11T04:48:32.276Z,-4.61
2023-02-11T04:49:34.716Z,-4.61
2023-02-11T04:50:37.078Z,-4.62
2023-02-11T04:51:39.491Z,-4.63
2023-02-11T04:52:41.868Z,-4.65
2023-02-11T04:53:44.239Z,-4.65
2023-02-11T04:54:46.566Z,-4.66
2023-02-11T04:55:50.798Z,-4.66
2023-02-11T04:56:53.500Z,-4.67
2023-02-11T04:57:55.834Z,-4.67
2023-02-11T04:58:58.319Z,-4.68
2023-02-11T05:00:00.697Z,-4.69
2023-02-11T05:01:07.934Z,-4.70
2023-02-11T05:02:10.356Z,-4.70
2023-02-11T05:03:13.378Z,-4.71
2023-02-11T05:04:16.351Z,-4.72
2023-02-11T05:05:18.767Z,-4.72
2023-02-11T05:06:21.176Z,-4.73
2023-02-11T05:07:23.692Z,-4.74
2023-02-11T05:08:26.067Z,-4.74
2023-02-11T05:09:28.533Z,-4.75
2023-02-11T05:10:30.854Z,-4.75
2023-02-11T05:11:33.380Z,-4.76
2023-02-11T05:12:35.731Z,-4.77
2023-02-11T05:13:38.108Z,-4.78
2023-02-11T05:14:40.632Z,-4.79
2023-02-11T05:15:43.014Z,-4.79
2023-02-11T05:16:45.443Z,-4.80
2023-02-11T05:17:47.866Z,-4.81
2023-02-11T05:18:52.456Z,-4.81
2023-02-11T05:19:55.038Z,-4.82
2023-02-11T05:20:57.705Z,-4.83
2023-02-11T05:22:03.181Z,-4.83
2023-02-11T05:23:06.015Z,-4.84
2023-02-11T05:24:08.641Z,-4.85
2023-02-11T05:25:11.122Z,-4.86
2023-02-11T05:26:13.827Z,-4.86
2023-02-11T05:27:16.305Z,-4.87
2023-02-11T05:28:18.774Z,-4.87
2023-02-11T05:29:21.142Z,-4.88
2023-02-11T05:30:23.479Z,-4.88
2023-02-11T05:31:25.993Z,-4.88
2023-02-11T05:32:28.374Z,-4.88
2023-02-11T05:33:31.017Z,-4.88
2023-02-11T05:34:33.375Z,-4.88
2023-02-11T05:35:35.754Z,-4.88
2023-02-11T05:36:38.130Z,-4.88
2023-02-11T05:37:40.524Z,-4.89
2023-02-11T05:38:43.485Z,-4.90
2023-02-11T05:39:45.900Z,-4.90
2023-02-11T05:40:48.214Z,-4.91
2023-02-11T05:41:50.646Z,-4.92
2023-02-11T05:42:53.019Z,-4.92
2023-02-11T05:43:55.427Z,-4.92
2023-02-11T05:44:58.020Z,-4.93
2023-02-11T05:46:00.452Z,-4.93
2023-02-11T05:47:02.816Z,-4.93
2023-02-11T05:48:05.423Z,-4.93
2023-02-11T05:49:07.799Z,-4.94
2023-02-11T05:50:10.223Z,-4.95
2023-02-11T05:51:12.557Z,-4.95
2023-02-11T05:52:14.959Z,-4.96
2023-02-11T05:53:17.333Z,-4.96
2023-02-11T05:54:19.974Z,-4.96
2023-02-11T05:55:22.376Z,-4.96
2023-02-11T05:56:24.754Z,-4.97
2023-02-11T05:57:27.146Z,-4.97
2023-02-11T05:58:29.569Z,-4.97
2023-02-11T05:59:31.957Z,-4.97
2023-02-11T06:00:35.051Z,-4.97
2023-02-11T06:01:37.438Z,-4.97
2023-02-11T06:02:40.327Z,-4.96
2023-02-11T06:03:42.842Z,-4.96
2023-02-11T06:04:45.438Z,-4.97
2023-02-11T06:05:47.992Z,-4.96
2023-02-11T06:06:50.453Z,-4.96
2023-02-11T06:07:53.318Z,-4.95
2023-02-11T06:08:56.481Z,-4.95
2023-02-11T06:09:59.572Z,-4.95
2023-02-11T06:11:01.944Z,-4.95
2023-02-11T06:12:04.517Z,-4.95
2023-02-11T06:13:06.901Z,-4.93
2023-02-11T06:14:10.009Z,-4.92
2023-02-11T06:15:12.409Z,-4.91
2023-02-11T06:16:14.819Z,-4.90
2023-02-11T06:17:17.234Z,-4.89
2023-02-11T06:18:19.616Z,-4.88
2023-02-11T06:19:22.017Z,-4.86
2023-02-11T06:20:24.439Z,-4.84
2023-02-11T06:21:42.410Z,-4.83
2023-02-11T06:22:46.399Z,-4.80
2023-02-11T06:23:49.274Z,-4.78
2023-02-11T06:25:00.897Z,-4.75
2023-02-11T06:26:08.961Z,-4.71
2023-02-11T06:27:11.384Z,-4.67
2023-02-11T06:28:13.818Z,-4.64
2023-02-11T06:29:16.541Z,-4.61
2023-02-11T06:30:19.025Z,-4.58
2023-02-11T06:31:21.812Z,-4.54
2023-02-11T06:32:42.740Z,-4.51
2023-02-11T06:33:46.141Z,-4.47
2023-02-11T06:34:48.470Z,-4.44
2023-02-11T06:35:51.154Z,-4.41
2023-02-11T06:36:53.719Z,-4.39
2023-02-11T06:37:56.119Z,-4.36
2023-02-11T06:38:58.437Z,-4.33
2023-02-11T06:40:01.010Z,-4.29
2023-02-11T06:41:03.417Z,-4.26
2023-02-11T06:42:07.911Z,-4.22
2023-02-11T06:43:10.379Z,-4.19
2023-02-11T06:44:12.765Z,-4.16
2023-02-11T06:45:15.113Z,-4.13
2023-02-11T06:46:17.577Z,-4.10
2023-02-11T06:47:19.991Z,-4.06
2023-02-11T06:48:24.029Z,-4.02
2023-02-11T06:49:26.385Z,-3.98
2023-02-11T06:50:28.719Z,-3.94
2023-02-11T06:51:31.169Z,-3.89
2023-02-11T06:52:34.194Z,-3.84
2023-02-11T06:53:38.681Z,-3.79
2023-02-11T06:54:41.029Z,-3.74
2023-02-11T06:55:43.471Z,-3.70
2023-02-11T06:56:45.821Z,-3.65
2023-02-11T06:57:48.156Z,-3.61
2023-02-11T06:58:57.130Z,-3.56
2023-02-11T06:59:59.527Z,-3.50
2023-02-11T07:01:08.972Z,-3.45
2023-02-11T07:02:11.431Z,-3.40
2023-02-11T07:03:13.867Z,-3.36
2023-02-11T07:04:16.313Z,-3.32
2023-02-11T07:05:18.810Z,-3.28
2023-02-11T07:06:23.148Z,-3.23
2023-02-11T07:07:25.543Z,-3.20
2023-02-11T07:08:27.915Z,-3.15
2023-02-11T07:09:30.454Z,-3.11
2023-02-11T07:10:34.197Z,-3.06
2023-02-11T07:11:36.608Z,-3.01
2023-02-11T07:12:38.983Z,-2.94
2023-02-11T07:13:41.501Z,-2.89
2023-02-11T07:14:43.894Z,-2.82
2023-02-11T07:15:46.311Z,-2.77
2023-02-11T07:16:48.699Z,-2.72
2023-02-11T07:17:51.082Z,-2.66
2023-02-11T07:18:53.901Z,-2.60
2023-02-11T07:19:56.302Z,-2.53
2023-02-11T07:20:58.809Z,-2.45
2023-02-11T07:22:01.139Z,-2.37
2023-02-11T07:23:03.466Z,-2.30
2023-02-11T07:24:11.111Z,-2.22
2023-02-11T07:25:13.933Z,-2.14
2023-02-11T07:26:19.853Z,-2.07
2023-02-11T07:27:22.259Z,-1.98
2023-02-11T07:28:24.815Z,-1.91
2023-02-11T07:29:27.330Z,-1.84
2023-02-11T07:30:29.679Z,-1.76
2023-02-11T07:31:32.523Z,-1.67
2023-02-11T07:32:34.978Z,-1.59
2023-02-11T07:33:37.990Z,-1.52
2023-02-11T07:34:40.490Z,-1.44
2023-02-11T07:35:42.844Z,-1.35
2023-02-11T07:36:45.258Z,-1.29
2023-02-11T07:37:47.598Z,-1.23
2023-02-11T07:38:50.240Z,-1.16
2023-02-11T07:39:52.643Z,-1.10
2023-02-11T07:40:54.966Z,-1.03
2023-02-11T07:41:57.391Z,-0.95
2023-02-11T07:43:01.215Z,-0.89
2023-02-11T07:44:03.712Z,-0.85
2023-02-11T07:45:06.489Z,-0.79
2023-02-11T07:46:11.601Z,-0.72
2023-02-11T07:47:13.990Z,-0.67
2023-02-11T07:48:16.331Z,-0.63
2023-02-11T07:49:18.864Z,-0.58
2023-02-11T07:50:21.266Z,-0.53
2023-02-11T07:51:28.814Z,-0.50
2023-02-11T07:52:31.446Z,-0.45
2023-02-11T07:53:33.782Z,-0.41
2023-02-11T07:54:36.213Z,-0.38
2023-02-11T07:55:38.550Z,-0.35
2023-02-11T07:56:40.937Z,-0.32
2023-02-11T07:57:43.306Z,-0.29
2023-02-11T07:58:48.342Z,-0.27
2023-02-11T07:59:50.805Z,-0.24
2023-02-11T08:00:53.248Z,-0.21
2023-02-11T08:01:55.664Z,-0.19
2023-02-11T08:02:58.358Z,-0.16
2023-02-11T08:04:02.642Z,-0.13
2023-02-11T08:05:05.221Z,-0.10
2023-02-11T08:06:13.223Z,-0.09
2023-02-11T08:07:19.300Z,-0.06
2023-02-11T08:08:21.672Z,-0.04
2023-02-11T08:09:24.032Z,-0.02
2023-02-11T08:10:26.349Z,0.00
2023-02-11T08:11:29.006Z,0.03
2023-02-11T08:12:31.356Z,0.06
2023-02-11T08:13:34.067Z,0.09
2023-02-11T08:14:36.553Z,0.12
2023-02-11T08:15:38.884Z,0.15
2023-02-11T08:16:41.902Z,0.17
2023-02-11T08:17:44.318Z,0.19
2023-02-11T08:18:46.721Z,0.21
2023-02-11T08:19:49.100Z,0.23
2023-02-11T08:20:51.808Z,0.25
2023-02-11T08:21:57.436Z,0.28
2023-02-11T08:22:59.834Z,0.30
2023-02-11T08:24:03.537Z,0.33
2023-02-11T08:25:06.358Z,0.35
2023-02-11T08:26:15.977Z,0.37
2023-02-11T08:27:18.358Z,0.40
2023-02-11T08:28:20.773Z,0.42
2023-02-11T08:29:23.195Z,0.45
2023-02-11T08:30:27.210Z,0.48
2023-02-11T08:31:38.583Z,0.51
2023-02-11T08:32:41.057Z,0.54
2023-02-11T08:33:43.637Z,0.58
2023-02-11T08:34:46.175Z,0.62
2023-02-11T08:35:48.501Z,0.66
2023-02-11T08:36:50.883Z,0.69
2023-02-11T08:37:53.632Z,0.72
2023-02-11T08:39:08.513Z,0.75
2023-02-11T08:40:14.709Z,0.80
2023-02-11T08:41:18.139Z,0.83
2023-02-11T08:42:20.528Z,0.86
2023-02-11T08:43:23.716Z,0.88
2023-02-11T08:44:26.258Z,0.90
2023-02-11T08:45:28.686Z,0.92
2023-02-11T08:46:31.164Z,0.95
2023-02-11T08:47:33.565Z,0.98
2023-02-11T08:48:36.034Z,1.01
2023-02-11T08:49:38.594Z,1.05
2023-02-11T08:50:40.958Z,1.08
2023-02-11T08:51:44.027Z,1.12
2023-02-11T08:52:46.388Z,1.15
2023-02-11T08:53:48.966Z,1.18
2023-02-11T08:54:51.323Z,1.20
2023-02-11T08:55:55.023Z,1.23
2023-02-11T08:56:57.463Z,1.26
2023-02-11T08:57:59.855Z,1.30
2023-02-11T08:59:02.367Z,1.33
2023-02-11T09:00:05.697Z,1.37
2023-02-11T09:01:17.756Z,1.41
2023-02-11T09:02:20.134Z,1.45
2023-02-11T09:03:22.532Z,1.50
2023-02-11T09:04:25.084Z,1.54
2023-02-11T09:05:27.756Z,1.58
2023-02-11T09:06:30.293Z,1.64
2023-02-11T09:07:32.622Z,1.70
2023-02-11T09:08:40.067Z,1.74
2023-02-11T09:09:42.446Z,1.79
2023-02-11T09:10:44.927Z,1.83
2023-02-11T09:11:48.259Z,1.86
2023-02-11T09:12:50.773Z,1.89
2023-02-11T09:13:54.413Z,1.92
2023-02-11T09:14:57.058Z,1.95
2023-02-11T09:16:00.329Z,2.00
2023-02-11T09:17:02.861Z,2.03
2023-02-11T09:18:05.637Z,2.06
2023-02-11T09:19:09.727Z,2.10
2023-02-11T09:20:12.229Z,2.13
2023-02-11T09:21:16.672Z,2.16
2023-02-11T09:22:19.032Z,2.19
2023-02-11T09:23:21.390Z,2.22
2023-02-11T09:24:23.756Z,2.27
2023-02-11T09:25:26.857Z,2.29
2023-02-11T09:26:33.796Z,2.32
2023-02-11T09:27:36.102Z,2.35
2023-02-11T09:28:38.466Z,2.37
2023-02-11T09:29:40.914Z,2.39
2023-02-11T09:30:43.400Z,2.42
2023-02-11T09:31:46.007Z,2.45
2023-02-11T09:32:48.568Z,2.49
2023-02-11T09:33:53.587Z,2.54
2023-02-11T09:34:55.926Z,2.59
2023-02-11T09:36:02.073Z,2.64
2023-02-11T09:37:04.574Z,2.69
2023-02-11T09:38:07.229Z,2.73
2023-02-11T09:39:13.693Z,2.77
2023-02-11T09:40:17.234Z,2.81
2023-02-11T09:41:25.396Z,2.85
2023-02-11T09:43:03.791Z,2.88
2023-02-11T09:44:09.216Z,2.93
2023-02-11T09:45:24.607Z,2.96
2023-02-11T09:46:31.639Z,2.98
2023-02-11T09:47:45.955Z,3.00
2023-02-11T09:48:49.671Z,3.02
2023-02-11T09:50:00.404Z,3.03
2023-02-11T09:51:04.476Z,3.04
2023-02-11T09:52:25.609Z,3.05
2023-02-11T09:53:31.569Z,3.06
2023-02-11T09:54:58.029Z,3.06
2023-02-11T09:56:02.646Z,3.07
2023-02-11T09:57:06.331Z,3.08
2023-02-11T09:58:25.337Z,3.09
2023-02-11T09:59:27.773Z,3.10
2023-02-11T10:00:51.808Z,3.11
2023-02-11T10:02:18.356Z,3.12
2023-02-11T10:03:51.005Z,3.14
2023-02-11T10:04:55.977Z,3.15
2023-02-11T10:06:10.818Z,3.16
2023-02-11T10:07:37.793Z,3.18
2023-02-11T10:08:59.651Z,3.21
2023-02-11T10:10:10.957Z,3.26
2023-02-11T10:11:50.390Z,3.30
2023-02-11T10:13:19.005Z,3.39
2023-02-11T10:14:45.660Z,3.47
2023-02-11T10:16:15.600Z,3.57
2023-02-11T10:17:39.066Z,3.66
2023-02-11T10:19:14.105Z,3.74
2023-02-11T10:20:32.549Z,3.83
2023-02-11T10:21:47.847Z,3.88
2023-02-11T10:23:21.370Z,3.94
2023-02-11T10:24:24.256Z,4.01
2023-02-11T10:25:30.297Z,4.07
2023-02-11T10:26:34.101Z,4.13
2023-02-11T10:27:36.496Z,4.19
2023-02-11T10:28:40.629Z,4.22
2023-02-11T10:30:07.164Z,4.23
2023-02-11T10:31:26.338Z,4.30
2023-02-11T10:32:40.284Z,4.42
2023-02-11T10:33:47.344Z,4.54
2023-02-11T10:34:50.743Z,4.64
2023-02-11T10:35:53.156Z,4.71
2023-02-11T10:36:57.998Z,4.78
2023-02-11T10:38:00.906Z,4.86
2023-02-11T10:39:19.234Z,4.94
2023-02-11T10:40:25.235Z,5.03
2023-02-11T10:41:32.897Z,5.10
2023-02-11T10:42:36.114Z,5.16
2023-02-11T10:43:38.783Z,5.21
2023-02-11T10:44:53.688Z,5.25
2023-02-11T10:45:57.041Z,5.30
2023-02-11T10:47:03.508Z,5.34
2023-02-11T10:48:07.325Z,5.37
2023-02-11T10:49:09.664Z,5.40
2023-02-11T10:50:26.117Z,5.43
2023-02-11T10:51:31.599Z,5.45
2023-02-11T10:52:33.964Z,5.48
2023-02-11T10:53:36.384Z,5.50
2023-02-11T10:54:38.711Z,5.52
2023-02-11T10:55:58.551Z,5.52
2023-02-11T10:57:01.001Z,5.53
2023-02-11T10:58:04.838Z,5.53
2023-02-11T10:59:28.039Z,5.53
2023-02-11T11:00:43.170Z,5.52
2023-02-11T11:01:50.160Z,5.51
2023-02-11T11:02:56.392Z,5.51
2023-02-11T11:04:00.048Z,5.50
2023-02-11T11:05:22.677Z,5.49
2023-02-11T11:06:32.747Z,5.47
2023-02-11T11:07:35.325Z,5.46
2023-02-11T11:08:49.009Z,5.45
2023-02-11T11:10:33.124Z,5.45
2023-02-11T11:11:52.372Z,5.43
2023-02-11T11:12:54.754Z,5.43
2023-02-11T11:13:59.948Z,5.43
2023-02-11T11:15:16.654Z,5.43
2023-02-11T11:16:24.800Z,5.43
2023-02-11T11:17:29.418Z,5.43
2023-02-11T11:18:31.899Z,5.44
2023-02-11T11:19:34.535Z,5.45
2023-02-11T11:20:38.043Z,5.46
2023-02-11T11:21:56.829Z,5.46
2023-02-11T11:23:15.756Z,5.47
2023-02-11T11:24:34.652Z,5.49
2023-02-11T11:25:40.081Z,5.50
2023-02-11T11:26:45.554Z,5.51
2023-02-11T11:27:53.308Z,5.51
2023-02-11T11:29:01.953Z,5.51
2023-02-11T11:30:04.662Z,5.52
2023-02-11T11:31:15.139Z,5.52
2023-02-11T11:32:26.129Z,5.53
2023-02-11T11:33:31.363Z,5.53
2023-02-11T11:34:37.297Z,5.53
2023-02-11T11:35:40.989Z,5.53
2023-02-11T11:36:44.230Z,5.53
2023-02-11T11:37:54.258Z,5.53
2023-02-11T11:38:59.073Z,5.54
2023-02-11T11:40:43.198Z,5.54
2023-02-11T11:41:54.777Z,5.56
2023-02-11T11:43:14.927Z,5.58
2023-02-11T11:44:26.713Z,5.60
2023-02-11T11:45:29.035Z,5.61
2023-02-11T11:46:33.405Z,5.64
2023-02-11T11:47:48.800Z,5.67
2023-02-11T11:48:54.685Z,5.71
2023-02-11T11:50:15.823Z,5.75
2023-02-11T11:51:18.280Z,5.78
2023-02-11T11:52:46.228Z,5.80
2023-02-11T11:53:57.580Z,5.82
2023-02-11T11:55:07.869Z,5.84
2023-02-11T11:56:17.338Z,5.86
2023-02-11T11:57:24.610Z,5.88
2023-02-11T11:58:29.688Z,5.89
2023-02-11T11:59:32.157Z,5.90
2023-02-11T12:01:06.781Z,5.92
2023-02-11T12:02:36.349Z,5.93
2023-02-11T12:03:56.924Z,5.96
2023-02-11T12:05:13.441Z,5.96
2023-02-11T12:06:30.549Z,5.96
2023-02-11T12:08:04.620Z,5.96
2023-02-11T12:09:17.446Z,5.96
2023-02-11T12:10:31.513Z,5.97
2023-02-11T12:11:45.488Z,5.98
2023-02-11T12:13:00.027Z,6.00
2023-02-11T12:14:28.462Z,6.02
2023-02-11T12:15:48.821Z,6.05
2023-02-11T12:17:05.277Z,6.08
2023-02-11T12:18:26.086Z,6.12
2023-02-11T12:20:14.215Z,6.15
2023-02-11T12:21:37.838Z,6.19
2023-02-11T12:22:54.918Z,6.22
2023-02-11T12:24:08.496Z,6.26
2023-02-11T12:25:27.521Z,6.29
2023-02-11T12:26:38.712Z,6.32
2023-02-11T12:28:14.906Z,6.34
2023-02-11T12:29:44.407Z,6.36
2023-02-11T12:31:06.923Z,6.37
2023-02-11T12:32:16.171Z,6.38
2023-02-11T12:33:21.402Z,6.38
2023-02-11T12:34:42.222Z,6.39
2023-02-11T12:35:58.544Z,6.39
2023-02-11T12:37:10.648Z,6.40
2023-02-11T12:38:29.056Z,6.41
2023-02-11T12:39:47.409Z,6.41
2023-02-11T12:41:02.465Z,6.41
2023-02-11T12:43:07.524Z,6.42
2023-02-11T12:44:21.675Z,6.42
2023-02-11T12:45:33.449Z,6.42
2023-02-11T12:46:49.306Z,6.43
2023-02-11T12:48:29.756Z,6.45
2023-02-11T12:50:29.353Z,6.46
2023-02-11T12:52:01.033Z,6.49
2023-02-11T12:53:12.278Z,6.51
2023-02-11T12:54:23.231Z,6.54
2023-02-11T12:55:27.369Z,6.57
2023-02-11T12:56:38.953Z,6.59
2023-02-11T12:57:42.376Z,6.62
2023-02-11T12:58:45.886Z,6.64
2023-02-11T12:59:56.686Z,6.68
2023-02-11T13:01:06.275Z,6.71
2023-02-11T13:02:22.001Z,6.75
2023-02-11T13:03:53.099Z,6.77
2023-02-11T13:05:00.400Z,6.79
2023-02-11T13:06:07.996Z,6.82
2023-02-11T13:07:16.504Z,6.84
2023-02-11T13:08:34.604Z,6.87
2023-02-11T13:09:43.772Z,6.90
2023-02-11T13:11:03.787Z,6.94
2023-02-11T13:12:25.138Z,6.98
2023-02-11T13:13:30.688Z,7.00
2023-02-11T13:14:40.405Z,7.02
2023-02-11T13:16:09.949Z,7.05
2023-02-11T13:17:23.373Z,7.09
2023-02-11T13:18:35.516Z,7.12
2023-02-11T13:19:53.044Z,7.15
2023-02-11T13:21:10.699Z,7.17
2023-02-11T13:22:35.522Z,7.18
2023-02-11T13:24:05.499Z,7.19
2023-02-11T13:25:33.534Z,7.20
2023-02-11T13:27:10.172Z,7.22
2023-02-11T13:28:30.076Z,7.23
2023-02-11T13:30:13.352Z,7.25
2023-02-11T13:31:16.937Z,7.28
2023-02-11T13:32:19.382Z,7.31
2023-02-11T13:33:32.972Z,7.33
2023-02-11T13:34:41.181Z,7.35
2023-02-11T13:35:48.732Z,7.38
2023-02-11T13:36:55.511Z,7.40
2023-02-11T13:38:00.510Z,7.42
2023-02-11T13:39:06.211Z,7.43
2023-02-11T13:40:23.281Z,7.44
2023-02-11T13:41:41.063Z,7.45
2023-02-11T13:42:51.819Z,7.45
2023-02-11T13:44:01.524Z,7.45
2023-02-11T13:45:37.678Z,7.44
2023-02-11T13:47:01.490Z,7.42
2023-02-11T13:48:06.693Z,7.42
2023-02-11T13:49:19.470Z,7.42
2023-02-11T13:50:25.944Z,7.41
2023-02-11T13:51:41.476Z,7.40
2023-02-11T13:52:44.761Z,7.40
2023-02-11T13:53:52.570Z,7.39
2023-02-11T13:54:58.317Z,7.39
2023-02-11T13:56:12.800Z,7.38
2023-02-11T13:57:21.091Z,7.37
2023-02-11T13:58:28.933Z,7.36
2023-02-11T13:59:33.052Z,7.36
2023-02-11T14:00:35.491Z,7.36
2023-02-11T14:02:18.474Z,7.36
2023-02-11T14:03:56.372Z,7.36
2023-02-11T14:05:23.253Z,7.36
2023-02-11T14:06:47.065Z,7.37
2023-02-11T14:08:26.179Z,7.37
2023-02-11T14:09:36.346Z,7.38
2023-02-11T14:10:41.161Z,7.38
2023-02-11T14:11:49.377Z,7.39
2023-02-11T14:13:20.018Z,7.39
2023-02-11T14:14:23.941Z,7.40
2023-02-11T14:15:27.296Z,7.40
2023-02-11T14:16:38.076Z,7.40
2023-02-11T14:17:41.095Z,7.40
2023-02-11T14:18:49.204Z,7.40
2023-02-11T14:19:51.953Z,7.40
2023-02-11T14:21:13.356Z,7.40
2023-02-11T14:22:20.471Z,7.39
2023-02-11T14:23:27.400Z,7.38
2023-02-11T14:24:31.078Z,7.36
2023-02-11T14:25:33.687Z,7.34
2023-02-11T14:26:55.396Z,7.32
2023-02-11T14:28:04.901Z,7.30
2023-02-11T14:29:24.368Z,7.28
2023-02-11T14:30:48.052Z,7.24
2023-02-11T14:32:11.391Z,7.21
2023-02-11T14:33:17.347Z,7.19
2023-02-11T14:34:47.705Z,7.17
2023-02-11T14:36:14.488Z,7.12
2023-02-11T14:37:27.059Z,7.08
2023-02-11T14:38:46.506Z,7.04
2023-02-11T14:39:56.383Z,7.00
2023-02-11T14:41:07.788Z,6.95
2023-02-11T14:42:22.579Z,6.90
2023-02-11T14:43:29.717Z,6.86
2023-02-11T14:44:33.984Z,6.82
2023-02-11T14:45:37.313Z,6.78
2023-02-11T14:46:46.286Z,6.74
2023-02-11T14:47:58.531Z,6.70
2023-02-11T14:49:03.819Z,6.67
2023-02-11T14:50:09.646Z,6.64